createdAt,value
2022-08-04T00:02:33.335Z,96922.06
2022-08-04T00:05:07.842Z,96925.66
2022-08-04T00:07:47.961Z,96920.47
2022-08-04T00:10:21.473Z,96921.28
2022-08-04T00:12:58.036Z,96918.88
2022-08-04T00:15:29.546Z,96925.22
2022-08-04T00:18:07.676Z,96924.81
2022-08-04T00:20:44.062Z,96925.59
2022-08-04T00:23:15.809Z,96923.06
2022-08-04T00:25:46.133Z,96920.25
2022-08-04T00:28:19.246Z,96928.91
2022-08-04T00:30:50.193Z,96928.59
2022-08-04T00:33:22.116Z,96929.38
2022-08-04T00:35:52.552Z,96929.78
2022-08-04T00:38:22.151Z,96930.53
2022-08-04T00:41:10.781Z,96934.16
2022-08-04T00:43:57.588Z,96933.38
2022-08-04T00:46:44.599Z,96931.06
2022-08-04T00:49:54.539Z,96925.81
2022-08-04T00:52:57.727Z,96933.28
2022-08-04T00:56:05.217Z,96930.38
2022-08-04T00:59:04.171Z,96929.69
2022-08-04T01:01:56.884Z,96926.50
2022-08-04T01:04:51.033Z,96928.59
2022-08-04T01:07:59.252Z,96931.72
2022-08-04T01:10:46.178Z,96924.97
2022-08-04T01:13:41.631Z,96921.69
2022-08-04T01:16:15.527Z,96920.03
2022-08-04T01:18:56.695Z,96923.16
2022-08-04T01:22:09.558Z,96928.75
2022-08-04T01:25:08.842Z,96928.44
2022-08-04T01:28:08.109Z,96922.88
2022-08-04T01:30:43.770Z,96927.94
2022-08-04T01:33:16.109Z,96922.19
2022-08-04T01:35:53.194Z,96922.94
2022-08-04T01:38:29.412Z,96923.84
2022-08-04T01:41:04.844Z,96911.31
2022-08-04T01:43:37.054Z,96916.41
2022-08-04T01:46:07.264Z,96921.47
2022-08-04T01:48:40.213Z,96913.88
2022-08-04T01:51:10.520Z,96915.00
2022-08-04T01:53:41.589Z,96912.31
2022-08-04T01:56:12.518Z,96913.94
2022-08-04T01:58:42.763Z,96913.19
2022-08-04T02:01:15.122Z,96914.84
2022-08-04T02:04:21.323Z,96921.50
2022-08-04T02:06:51.378Z,96914.34
2022-08-04T02:09:33.211Z,96917.97
2022-08-04T02:12:16.358Z,96919.16
2022-08-04T02:15:01.615Z,96922.78
2022-08-04T02:17:40.340Z,96921.16
2022-08-04T02:20:16.347Z,96926.72
2022-08-04T02:22:54.128Z,96923.22
2022-08-04T02:25:28.759Z,96921.34
2022-08-04T02:28:22.535Z,96923.03
2022-08-04T02:31:09.480Z,96916.13
2022-08-04T02:33:43.281Z,96909.69
2022-08-04T02:36:17.914Z,96912.84
2022-08-04T02:38:57.939Z,96923.53
2022-08-04T02:41:29.868Z,96915.66
2022-08-04T02:44:01.703Z,96921.91
2022-08-04T02:46:32.482Z,96913.09
2022-08-04T02:49:06.434Z,96907.09
2022-08-04T02:51:38.186Z,96906.19
2022-08-04T02:54:08.947Z,96900.97
2022-08-04T02:56:39.619Z,96898.59
2022-08-04T02:59:10.745Z,96899.06
2022-08-04T03:01:56.517Z,96890.63
2022-08-04T03:04:46.773Z,96894.75
2022-08-04T03:07:58.999Z,96909.78
2022-08-04T03:11:05.192Z,96895.97
2022-08-04T03:13:53.896Z,96902.03
2022-08-04T03:17:28.603Z,96903.63
2022-08-04T03:20:38.870Z,96906.34
2022-08-04T03:23:47.116Z,96903.34
2022-08-04T03:27:17.158Z,96908.41
2022-08-04T03:30:14.322Z,96912.28
2022-08-04T03:33:21.294Z,96914.78
2022-08-04T03:36:39.428Z,96923.88
2022-08-04T03:39:59.691Z,96911.94
2022-08-04T03:43:59.439Z,96919.81
2022-08-04T03:46:41.813Z,96921.28
2022-08-04T03:49:51.319Z,96920.72
2022-08-04T03:53:10.891Z,96920.16
2022-08-04T03:56:09.339Z,96917.78
2022-08-04T03:58:54.135Z,96914.97
2022-08-04T04:02:10.908Z,96921.59
2022-08-04T04:05:05.734Z,96914.31
2022-08-04T04:08:28.704Z,96905.31
2022-08-04T04:11:36.166Z,96904.63
2022-08-04T04:14:54.884Z,96911.19
2022-08-04T04:18:16.988Z,96913.28
2022-08-04T04:21:28.456Z,96903.91
2022-08-04T04:24:47.063Z,96909.69
2022-08-04T04:27:38.824Z,96919.81
2022-08-04T04:30:13.512Z,96925.78
2022-08-04T04:33:28.656Z,96919.94
2022-08-04T04:36:12.545Z,96917.63
2022-08-04T04:39:14.779Z,96911.47
2022-08-04T04:42:09.142Z,96918.69
2022-08-04T04:45:19.564Z,96923.50
2022-08-04T04:48:08.880Z,96921.16
2022-08-04T04:50:59.782Z,96931.56
2022-08-04T04:53:38.567Z,96931.66
2022-08-04T04:56:24.079Z,96928.63
2022-08-04T04:58:56.945Z,96929.88
2022-08-04T05:01:53.438Z,96933.47
2022-08-04T05:04:59.180Z,96930.38
2022-08-04T05:07:58.456Z,96929.72
2022-08-04T05:10:50.476Z,96933.00
2022-08-04T05:14:34.918Z,96939.81
2022-08-04T05:16:36.036Z,96945.44
2022-08-04T05:19:22.217Z,96946.28
2022-08-04T05:21:59.421Z,96944.78
2022-08-04T05:24:35.135Z,96944.44
2022-08-04T05:27:15.634Z,96945.25
2022-08-04T05:29:57.409Z,96939.34
2022-08-04T05:32:32.144Z,96939.75
2022-08-04T05:35:07.487Z,96944.94
2022-08-04T05:37:41.787Z,96941.34
2022-08-04T05:40:13.881Z,96946.13
2022-08-04T05:42:43.008Z,96944.13
2022-08-04T05:45:14.602Z,96946.88
2022-08-04T05:47:44.988Z,96948.81
2022-08-04T05:50:15.051Z,96945.56
2022-08-04T05:52:44.445Z,96947.91
2022-08-04T05:55:48.408Z,96941.47
2022-08-04T05:58:04.557Z,96937.75
2022-08-04T06:00:41.098Z,96949.53
2022-08-04T06:03:12.940Z,96940.66
2022-08-04T06:05:43.908Z,96945.16
2022-08-04T06:08:14.030Z,96946.84
2022-08-04T06:10:47.571Z,96944.84
2022-08-04T06:13:49.285Z,96944.13
2022-08-04T06:16:17.892Z,96946.00
2022-08-04T06:20:03.139Z,96946.75
2022-08-04T06:21:54.482Z,96949.03
2022-08-04T06:24:30.003Z,96945.28
2022-08-04T06:27:00.605Z,96950.41
2022-08-04T06:29:36.178Z,96954.72
2022-08-04T06:32:27.024Z,96945.81
2022-08-04T06:35:05.567Z,96952.75
2022-08-04T06:37:42.761Z,96942.50
2022-08-04T06:40:30.822Z,96945.84
2022-08-04T06:43:02.860Z,96940.22
2022-08-04T06:45:35.445Z,96940.69
2022-08-04T06:48:07.514Z,96948.59
2022-08-04T06:51:28.656Z,96944.59
2022-08-04T06:53:27.115Z,96951.09
2022-08-04T06:55:57.345Z,96945.59
2022-08-04T06:58:27.104Z,96949.34
2022-08-04T07:01:01.894Z,96948.19
2022-08-04T07:03:33.525Z,96953.06
2022-08-04T07:06:05.703Z,96954.59
2022-08-04T07:08:37.076Z,96948.44
2022-08-04T07:11:07.356Z,96952.25
2022-08-04T07:13:40.772Z,96947.66
2022-08-04T07:16:14.616Z,96945.72
2022-08-04T07:18:44.538Z,96946.78
2022-08-04T07:21:21.693Z,96948.28
2022-08-04T07:23:51.136Z,96946.03
2022-08-04T07:26:19.883Z,96939.50
2022-08-04T07:28:48.620Z,96943.72
2022-08-04T07:31:33.494Z,96948.13
2022-08-04T07:34:21.484Z,96950.47
2022-08-04T07:36:55.245Z,96951.34
2022-08-04T07:39:28.245Z,96948.56
2022-08-04T07:42:01.127Z,96954.88
2022-08-04T07:44:31.990Z,96963.31
2022-08-04T07:47:01.568Z,96960.56
2022-08-04T07:49:56.735Z,96959.66
2022-08-04T07:52:19.932Z,96952.16
2022-08-04T07:54:50.564Z,96951.56
2022-08-04T07:57:39.824Z,96950.81
2022-08-04T08:00:14.497Z,96942.78
2022-08-04T08:02:43.584Z,96948.78
2022-08-04T08:05:17.981Z,96950.66
2022-08-04T08:07:50.459Z,96958.63
2022-08-04T08:10:23.720Z,96950.56
2022-08-04T08:12:53.195Z,96944.31
2022-08-04T08:15:22.679Z,96941.69
2022-08-04T08:17:59.398Z,96943.69
2022-08-04T08:20:32.263Z,96941.44
2022-08-04T08:23:02.842Z,96941.50
2022-08-04T08:25:33.244Z,96941.22
2022-08-04T08:28:04.880Z,96938.28
2022-08-04T08:30:35.109Z,96938.16
2022-08-04T08:33:07.732Z,96933.53
2022-08-04T08:35:53.086Z,96938.91
2022-08-04T08:38:38.907Z,96939.03
2022-08-04T08:41:52.192Z,96929.03
2022-08-04T08:45:08.340Z,96934.81
2022-08-04T08:48:06.014Z,96936.53
2022-08-04T08:51:08.085Z,96942.47
2022-08-04T08:54:09.658Z,96943.03
2022-08-04T08:56:53.292Z,96943.06
2022-08-04T08:59:49.122Z,96943.06
2022-08-04T09:03:04.524Z,96946.75
2022-08-04T09:05:58.660Z,96941.00
2022-08-04T09:08:54.080Z,96930.59
2022-08-04T09:11:28.961Z,96940.34
2022-08-04T09:14:06.580Z,96941.50
2022-08-04T09:16:43.683Z,96937.69
2022-08-04T09:19:38.115Z,96939.16
2022-08-04T09:22:21.885Z,96945.59
2022-08-04T09:25:02.627Z,96942.25
2022-08-04T09:27:45.512Z,96949.69
2022-08-04T09:30:18.961Z,96940.75
2022-08-04T09:33:08.835Z,96943.25
2022-08-04T09:35:49.895Z,96936.50
2022-08-04T09:38:28.849Z,96935.69
2022-08-04T09:41:03.895Z,96935.06
2022-08-04T09:44:48.705Z,96939.94
2022-08-04T09:47:00.706Z,96937.59
2022-08-04T09:49:37.861Z,96934.59
2022-08-04T09:52:23.950Z,96927.88
2022-08-04T09:55:06.481Z,96932.81
2022-08-04T09:57:52.809Z,96924.00
2022-08-04T10:00:40.500Z,96917.44
2022-08-04T10:03:19.582Z,96915.84
2022-08-04T10:06:07.825Z,96921.28
2022-08-04T10:09:00.468Z,96916.81
2022-08-04T10:11:56.682Z,96919.31
2022-08-04T10:14:47.506Z,96909.50
2022-08-04T10:17:35.786Z,96912.28
2022-08-04T10:20:15.236Z,96906.84
2022-08-04T10:23:55.287Z,96901.09
2022-08-04T10:26:34.431Z,96900.84
2022-08-04T10:29:11.365Z,96898.78
2022-08-04T10:31:47.853Z,96899.00
2022-08-04T10:34:22.658Z,96893.03
2022-08-04T10:37:00.613Z,96896.88
2022-08-04T10:40:04.031Z,96902.09
2022-08-04T10:42:37.072Z,96890.50
2022-08-04T10:45:19.277Z,96884.66
2022-08-04T10:48:01.333Z,96890.78
2022-08-04T10:50:31.475Z,96885.03
2022-08-04T10:53:07.795Z,96881.09
2022-08-04T10:56:06.786Z,96875.59
2022-08-04T10:58:48.228Z,96871.50
2022-08-04T11:02:00.862Z,96879.38
2022-08-04T11:04:37.735Z,96879.84
2022-08-04T11:07:06.694Z,96871.50
2022-08-04T11:09:36.801Z,96868.88
2022-08-04T11:12:15.556Z,96870.25
2022-08-04T11:14:54.948Z,96866.53
2022-08-04T11:17:33.627Z,96864.22
2022-08-04T11:23:10.869Z,96863.75
2022-08-04T11:25:53.879Z,96857.50
2022-08-04T11:28:40.161Z,96860.84
2022-08-04T11:31:14.312Z,96859.53
2022-08-04T11:33:53.588Z,96858.09
2022-08-04T11:36:33.430Z,96858.31
2022-08-04T11:39:11.311Z,96859.81
2022-08-04T11:41:49.769Z,96851.94
2022-08-04T11:44:27.738Z,96855.97
2022-08-04T11:47:04.317Z,96854.44
2022-08-04T11:49:56.116Z,96852.28
2022-08-04T11:52:30.139Z,96856.06
2022-08-04T11:55:01.613Z,96848.00
2022-08-04T11:57:35.893Z,96846.50
2022-08-04T12:00:11.096Z,96840.16
2022-08-04T12:03:13.519Z,96844.00
2022-08-04T12:05:58.467Z,96842.84
2022-08-04T12:08:49.088Z,96847.81
2022-08-04T12:11:35.929Z,96840.47
2022-08-04T12:14:21.132Z,96847.03
2022-08-04T12:17:00.488Z,96841.28
2022-08-04T12:19:41.986Z,96841.06
2022-08-04T12:22:33.598Z,96846.06
2022-08-04T12:25:07.483Z,96839.38
2022-08-04T12:27:42.986Z,96834.34
2022-08-04T12:30:58.981Z,96830.44
2022-08-04T12:33:12.001Z,96825.75
2022-08-04T12:36:04.309Z,96819.78
2022-08-04T12:39:00.294Z,96823.63
2022-08-04T12:41:40.192Z,96819.31
2022-08-04T12:44:36.256Z,96820.28
2022-08-04T12:47:25.653Z,96819.03
2022-08-04T12:50:03.578Z,96817.47
2022-08-04T12:53:01.449Z,96808.63
2022-08-04T12:55:31.505Z,96802.16
2022-08-04T12:58:02.707Z,96810.13
2022-08-04T13:00:43.756Z,96803.44
2022-08-04T13:03:17.790Z,96804.53
2022-08-04T13:05:47.757Z,96810.88
2022-08-04T13:08:21.923Z,96798.13
2022-08-04T13:10:58.541Z,96800.78
2022-08-04T13:13:32.452Z,96796.66
2022-08-04T13:16:05.601Z,96797.19
2022-08-04T13:18:40.872Z,96793.38
2022-08-04T13:21:19.789Z,96788.06
2022-08-04T13:24:10.078Z,96784.34
2022-08-04T13:26:55.481Z,96782.81
2022-08-04T13:29:57.737Z,96777.31
2022-08-04T13:32:22.355Z,96774.72
2022-08-04T13:34:54.914Z,96771.03
2022-08-04T13:37:31.671Z,96771.63
2022-08-04T13:40:03.388Z,96773.31
2022-08-04T13:42:36.355Z,96765.00
2022-08-04T13:45:09.309Z,96767.56
2022-08-04T13:47:42.032Z,96764.88
2022-08-04T13:50:23.489Z,96763.38
2022-08-04T13:52:55.910Z,96761.25
2022-08-04T13:55:31.722Z,96755.81
2022-08-04T13:58:11.568Z,96751.91
2022-08-04T14:00:54.712Z,96756.31
2022-08-04T14:03:31.623Z,96761.34
2022-08-04T14:06:24.455Z,96761.56
2022-08-04T14:08:56.535Z,96750.41
2022-08-04T14:12:10.505Z,96751.28
2022-08-04T14:14:28.204Z,96744.19
2022-08-04T14:17:04.736Z,96746.81
2022-08-04T14:19:54.351Z,96737.91
2022-08-04T14:22:35.833Z,96729.81
2022-08-04T14:25:15.849Z,96739.63
2022-08-04T14:27:47.292Z,96726.28
2022-08-04T14:30:29.580Z,96726.66
2022-08-04T14:34:02.944Z,96726.41
2022-08-04T14:36:01.705Z,96718.22
2022-08-04T14:38:49.694Z,96714.91
2022-08-04T14:41:21.399Z,96712.56
2022-08-04T14:43:53.126Z,96711.44
2022-08-04T14:46:30.329Z,96710.09
2022-08-04T14:49:11.008Z,96715.00
2022-08-04T14:51:42.770Z,96710.25
2022-08-04T14:54:17.643Z,96712.94
2022-08-04T14:56:56.014Z,96717.88
2022-08-04T14:59:25.617Z,96711.09
2022-08-04T15:02:00.522Z,96710.19
2022-08-04T15:04:32.274Z,96698.75
2022-08-04T15:07:04.567Z,96700.38
2022-08-04T15:09:34.005Z,96705.81
2022-08-04T15:12:04.256Z,96702.16
2022-08-04T15:14:36.914Z,96701.59
2022-08-04T15:17:12.514Z,96691.97
2022-08-04T15:19:58.119Z,96702.31
2022-08-04T15:22:26.718Z,96692.78
2022-08-04T15:24:56.089Z,96695.50
2022-08-04T15:27:29.610Z,96699.31
2022-08-04T15:30:03.392Z,96694.13
2022-08-04T15:32:38.130Z,96693.09
2022-08-04T15:35:12.725Z,96682.97
2022-08-04T15:37:55.219Z,96687.13
2022-08-04T15:40:33.790Z,96681.59
2022-08-04T15:43:21.690Z,96679.34
2022-08-04T15:46:33.004Z,96676.72
2022-08-04T15:48:41.945Z,96681.63
2022-08-04T15:51:15.455Z,96677.28
2022-08-04T15:54:30.628Z,96671.25
2022-08-04T15:57:03.452Z,96666.25
2022-08-04T16:00:01.558Z,96667.84
2022-08-04T16:02:46.883Z,96670.78
2022-08-04T16:05:39.350Z,96663.28
2022-08-04T16:08:18.257Z,96669.47
2022-08-04T16:10:50.495Z,96664.00
2022-08-04T16:13:22.208Z,96661.19
2022-08-04T16:15:54.546Z,96662.69
2022-08-04T16:18:40.301Z,96657.78
2022-08-04T16:21:26.429Z,96660.69
2022-08-04T16:24:20.091Z,96660.44
2022-08-04T16:26:57.338Z,96653.41
2022-08-04T16:29:40.693Z,96655.09
2022-08-04T16:32:16.182Z,96659.44
2022-08-04T16:34:55.289Z,96648.28
2022-08-04T16:37:32.704Z,96655.34
2022-08-04T16:40:38.499Z,96652.16
2022-08-04T16:43:13.440Z,96652.59
2022-08-04T16:45:54.989Z,96653.59
2022-08-04T16:48:27.441Z,96648.03
2022-08-04T16:51:04.740Z,96647.41
2022-08-04T16:54:02.763Z,96646.06
2022-08-04T16:56:36.239Z,96645.69
2022-08-04T16:59:10.239Z,96648.66
2022-08-04T17:01:39.676Z,96647.44
2022-08-04T17:04:08.253Z,96642.63
2022-08-04T17:06:39.330Z,96640.84
2022-08-04T17:09:14.747Z,96635.19
2022-08-04T17:11:48.266Z,96635.88
2022-08-04T17:14:23.957Z,96626.06
2022-08-04T17:16:53.523Z,96627.59
2022-08-04T17:19:25.890Z,96631.47
2022-08-04T17:22:04.963Z,96628.97
2022-08-04T17:24:38.235Z,96624.94
2022-08-04T17:28:09.788Z,96625.75
2022-08-04T17:29:56.211Z,96618.91
2022-08-04T17:32:25.416Z,96624.28
2022-08-04T17:34:57.190Z,96627.44
2022-08-04T17:37:39.536Z,96619.13
2022-08-04T17:40:17.951Z,96619.91
2022-08-04T17:42:51.637Z,96622.19
2022-08-04T17:48:24.159Z,96616.72
2022-08-04T17:50:53.424Z,96614.06
2022-08-04T17:53:52.817Z,96616.97
2022-08-04T17:56:52.144Z,96612.69
2022-08-04T17:59:56.539Z,96614.78
2022-08-04T18:02:33.115Z,96613.28
2022-08-04T18:05:14.659Z,96611.44
2022-08-04T18:08:40.213Z,96614.97
2022-08-04T18:10:54.209Z,96615.09
2022-08-04T18:16:27.687Z,96617.59
2022-08-04T18:19:12.730Z,96618.22
2022-08-04T18:22:00.500Z,96616.72
2022-08-04T18:24:56.425Z,96618.59
2022-08-04T18:27:30.214Z,96618.34
2022-08-04T18:30:34.318Z,96620.75
2022-08-04T18:33:10.626Z,96611.50
2022-08-04T18:36:32.564Z,96614.03
2022-08-04T18:38:35.659Z,96617.00
2022-08-04T18:41:23.674Z,96622.44
2022-08-04T18:43:55.873Z,96627.50
2022-08-04T18:46:27.346Z,96625.72
2022-08-04T18:48:58.337Z,96622.91
2022-08-04T18:51:31.007Z,96629.00
2022-08-04T18:54:00.285Z,96633.25
2022-08-04T18:56:32.476Z,96630.88
2022-08-04T18:59:03.033Z,96630.19
2022-08-04T19:02:09.277Z,96635.75
2022-08-04T19:04:32.875Z,96639.56
2022-08-04T19:07:29.319Z,96630.41
2022-08-04T19:09:57.830Z,96639.56
2022-08-04T19:12:28.902Z,96643.94
2022-08-04T19:15:10.687Z,96647.34
2022-08-04T19:17:52.414Z,96647.59
2022-08-04T19:20:25.073Z,96656.94
2022-08-04T19:24:28.584Z,96658.38
2022-08-04T19:26:01.912Z,96662.47
2022-08-04T19:28:36.253Z,96667.84
2022-08-04T19:31:06.765Z,96658.41
2022-08-04T19:33:58.222Z,96667.19
2022-08-04T19:36:28.669Z,96665.19
2022-08-04T19:38:59.233Z,96665.97
2022-08-04T19:41:30.602Z,96663.16
2022-08-04T19:44:00.035Z,96671.16
2022-08-04T19:46:29.230Z,96678.69
2022-08-04T19:49:00.836Z,96679.00
2022-08-04T19:51:32.651Z,96678.78
2022-08-04T19:54:05.871Z,96678.09
2022-08-04T19:56:41.287Z,96684.94
2022-08-04T19:59:10.954Z,96680.41
2022-08-04T20:01:45.227Z,96680.84
2022-08-04T20:04:15.882Z,96683.44
2022-08-04T20:06:44.766Z,96688.97
2022-08-04T20:09:25.098Z,96687.72
2022-08-04T20:11:55.936Z,96680.41
2022-08-04T20:14:32.627Z,96691.66
2022-08-04T20:17:03.417Z,96692.56
2022-08-04T20:19:40.898Z,96700.47
2022-08-04T20:22:52.930Z,96696.97
2022-08-04T20:25:11.046Z,96699.50
2022-08-04T20:27:59.285Z,96702.22
2022-08-04T20:30:29.529Z,96701.94
2022-08-04T20:33:00.075Z,96703.09
2022-08-04T20:35:30.358Z,96701.06
2022-08-04T20:38:01.441Z,96703.25
2022-08-04T20:40:30.712Z,96703.00
2022-08-04T20:42:59.798Z,96708.44
2022-08-04T20:45:56.634Z,96700.19
2022-08-04T20:48:16.975Z,96702.47
2022-08-04T20:50:48.175Z,96697.25
2022-08-04T20:53:17.364Z,96707.03
2022-08-04T20:55:55.102Z,96694.84
2022-08-04T20:58:27.497Z,96699.81
2022-08-04T21:00:57.135Z,96706.16
2022-08-04T21:03:49.417Z,96703.09
2022-08-04T21:06:15.723Z,96698.56
2022-08-04T21:08:57.283Z,96702.00
2022-08-04T21:11:32.730Z,96703.38
2022-08-04T21:14:02.233Z,96707.91
2022-08-04T21:16:55.520Z,96709.56
2022-08-04T21:19:22.417Z,96707.50
2022-08-04T21:21:54.965Z,96705.56
2022-08-04T21:24:26.135Z,96709.81
2022-08-04T21:26:57.931Z,96713.09
2022-08-04T21:29:29.651Z,96710.50
2022-08-04T21:32:05.716Z,96715.00
2022-08-04T21:34:39.723Z,96711.50
2022-08-04T21:37:56.551Z,96703.59
2022-08-04T21:40:13.732Z,96711.25
2022-08-04T21:42:50.091Z,96708.88
2022-08-04T21:45:22.037Z,96706.88
2022-08-04T21:47:50.937Z,96712.47
2022-08-04T21:50:20.397Z,96709.81
2022-08-04T21:52:50.670Z,96714.19
2022-08-04T21:55:19.708Z,96714.19
2022-08-04T21:57:49.356Z,96712.66
2022-08-04T22:00:20.245Z,96711.56
2022-08-04T22:02:53.363Z,96713.59
2022-08-04T22:05:22.512Z,96709.22
2022-08-04T22:07:52.748Z,96716.44
2022-08-04T22:10:31.970Z,96704.91
2022-08-04T22:13:02.925Z,96710.50
2022-08-04T22:16:04.928Z,96713.31
2022-08-04T22:18:24.676Z,96712.13
2022-08-04T22:20:56.124Z,96712.59
2022-08-04T22:23:25.801Z,96708.63
2022-08-04T22:25:56.163Z,96707.94
2022-08-04T22:28:28.766Z,96707.22
2022-08-04T22:30:58.269Z,96705.63
2022-08-04T22:33:54.592Z,96707.72
2022-08-04T22:36:17.350Z,96703.88
2022-08-04T22:38:56.866Z,96707.94
2022-08-04T22:41:48.963Z,96702.38
2022-08-04T22:44:23.945Z,96693.22
2022-08-04T22:46:58.107Z,96696.47
2022-08-04T22:49:31.454Z,96690.06
2022-08-04T22:52:02.854Z,96692.38
2022-08-04T22:54:40.768Z,96689.56
2022-08-04T22:57:09.539Z,96693.53
2022-08-04T22:59:42.890Z,96697.13
2022-08-04T23:02:11.722Z,96699.47
2022-08-04T23:04:43.289Z,96693.53
2022-08-04T23:07:12.835Z,96697.19
2022-08-04T23:09:50.777Z,96690.59
2022-08-04T23:12:25.980Z,96690.69
2022-08-04T23:14:56.479Z,96688.03
2022-08-04T23:17:27.750Z,96688.13
2022-08-04T23:19:57.748Z,96690.91
2022-08-04T23:22:42.236Z,96695.25
2022-08-04T23:25:16.503Z,96684.84
2022-08-04T23:27:51.233Z,96696.81
2022-08-04T23:30:24.650Z,96687.41
2022-08-04T23:32:58.136Z,96690.59
2022-08-04T23:35:26.640Z,96690.38
2022-08-04T23:37:56.912Z,96693.66
2022-08-04T23:40:34.201Z,96695.06
2022-08-04T23:43:10.517Z,96687.16
2022-08-04T23:46:04.059Z,96691.56
2022-08-04T23:48:34.938Z,96683.53
2022-08-04T23:51:14.103Z,96693.19
2022-08-04T23:54:02.507Z,96688.03
2022-08-04T23:56:34.819Z,96684.94
2022-08-04T23:59:04.788Z,96680.09
